createdAt,value
2018-06-24T00:02:07.322Z,11.60
2018-06-24T00:04:36.183Z,11.60
2018-06-24T00:07:04.306Z,11.60
2018-06-24T00:09:32.912Z,11.60
2018-06-24T00:14:28.890Z,11.60
2018-06-24T00:16:57.957Z,11.60
2018-06-24T00:19:26.404Z,11.60
2018-06-24T00:21:55.351Z,11.60
2018-06-24T00:24:24.905Z,11.60
2018-06-24T00:26:53.773Z,11.60
2018-06-24T00:30:47.070Z,11.60
2018-06-24T00:34:18.438Z,11.60
2018-06-24T00:36:46.523Z,11.60
2018-06-24T00:41:44.027Z,11.60
2018-06-24T00:44:13.117Z,11.70
2018-06-24T00:46:41.193Z,11.70
2018-06-24T00:49:09.425Z,11.60
2018-06-24T00:51:38.942Z,11.70
2018-06-24T00:54:07.148Z,11.70
2018-06-24T00:56:35.205Z,11.70
2018-06-24T00:59:03.803Z,11.70
2018-06-24T01:01:32.346Z,11.80
2018-06-24T01:06:28.989Z,11.70
2018-06-24T01:08:59.601Z,11.70
2018-06-24T01:11:28.195Z,11.70
2018-06-24T01:13:56.381Z,11.70
2018-06-24T01:16:24.670Z,11.70
2018-06-24T01:21:20.957Z,11.70
2018-06-24T01:23:49.226Z,11.70
2018-06-24T01:26:17.446Z,11.70
2018-06-24T01:28:46.127Z,11.70
2018-06-24T01:31:14.853Z,11.70
2018-06-24T01:38:38.930Z,11.70
2018-06-24T01:41:07.076Z,11.70
2018-06-24T01:43:35.460Z,11.70
2018-06-24T01:46:03.748Z,11.70
2018-06-24T01:48:31.797Z,11.70
2018-06-24T01:51:00.471Z,11.70
2018-06-24T01:53:28.529Z,11.70
2018-06-24T01:55:57.400Z,11.70
2018-06-24T01:58:26.206Z,11.70
2018-06-24T02:00:54.701Z,11.70
2018-06-24T02:03:22.893Z,11.70
2018-06-24T02:05:51.821Z,11.60
2018-06-24T02:08:19.934Z,11.70
2018-06-24T02:10:48.198Z,11.70
2018-06-24T02:13:17.148Z,11.70
2018-06-24T02:15:46.138Z,11.70
2018-06-24T02:18:15.276Z,11.70
2018-06-24T02:23:13.133Z,11.70
2018-06-24T02:25:41.233Z,11.70
2018-06-24T02:30:38.020Z,11.80
2018-06-24T02:33:06.293Z,11.80
2018-06-24T02:35:35.442Z,11.80
2018-06-24T02:38:03.581Z,11.80
2018-06-24T02:40:31.838Z,11.80
2018-06-24T02:42:59.962Z,11.80
2018-06-24T02:45:28.418Z,11.80
2018-06-24T02:47:56.605Z,11.70
2018-06-24T02:51:27.945Z,11.80
2018-06-24T02:53:56.171Z,11.70
2018-06-24T02:58:52.513Z,11.70
2018-06-24T03:01:21.229Z,11.60
2018-06-24T03:03:49.936Z,11.70
2018-06-24T03:06:18.987Z,11.70
2018-06-24T03:11:16.018Z,11.70
2018-06-24T03:13:44.082Z,11.70
2018-06-24T03:16:12.254Z,11.70
2018-06-24T03:18:41.690Z,11.70
2018-06-24T03:21:09.811Z,11.70
2018-06-24T03:23:38.034Z,11.70
2018-06-24T03:26:06.685Z,11.60
2018-06-24T03:28:36.316Z,11.70
2018-06-24T03:31:04.490Z,11.60
2018-06-24T03:33:33.464Z,11.70
2018-06-24T03:36:02.694Z,11.60
2018-06-24T03:38:30.796Z,11.70
2018-06-24T03:43:27.649Z,11.70
2018-06-24T03:48:24.414Z,11.70
2018-06-24T03:50:52.698Z,11.70
2018-06-24T03:53:21.106Z,11.80
2018-06-24T03:55:49.387Z,11.80
2018-06-24T03:58:18.301Z,11.80
2018-06-24T04:00:46.450Z,11.80
2018-06-24T04:03:15.282Z,11.80
2018-06-24T04:05:43.355Z,11.80
2018-06-24T04:08:11.879Z,11.80
2018-06-24T04:10:40.589Z,11.80
2018-06-24T04:13:08.750Z,11.80
2018-06-24T04:15:36.989Z,11.70
2018-06-24T04:20:33.766Z,11.70
2018-06-24T04:23:01.959Z,11.70
2018-06-24T04:25:30.034Z,11.70
2018-06-24T04:27:58.258Z,11.70
2018-06-24T04:35:24.467Z,11.70
2018-06-24T04:37:52.685Z,11.80
2018-06-24T04:40:20.741Z,11.80
2018-06-24T04:42:49.603Z,11.80
2018-06-24T04:45:17.834Z,11.80
2018-06-24T04:47:46.445Z,11.80
2018-06-24T04:50:14.505Z,11.80
2018-06-24T04:52:43.173Z,11.80
2018-06-24T04:55:12.312Z,11.90
2018-06-24T04:57:40.406Z,11.90
2018-06-24T05:00:08.462Z,11.90
2018-06-24T05:02:37.228Z,12.00
2018-06-24T05:05:06.753Z,12.00
2018-06-24T05:07:35.361Z,12.10
2018-06-24T05:10:03.772Z,12.10
2018-06-24T05:12:31.893Z,12.10
2018-06-24T05:15:00.300Z,12.10
2018-06-24T05:17:28.446Z,12.20
2018-06-24T05:19:57.313Z,12.20
2018-06-24T05:22:25.370Z,12.20
2018-06-24T05:27:22.790Z,12.20
2018-06-24T05:29:51.602Z,12.20
2018-06-24T05:32:20.885Z,12.20
2018-06-24T05:34:49.969Z,12.20
2018-06-24T05:37:18.177Z,12.30
2018-06-24T05:39:46.911Z,12.40
2018-06-24T05:42:15.726Z,12.50
2018-06-24T05:44:44.002Z,12.60
2018-06-24T05:47:16.471Z,12.70
2018-06-24T05:49:46.525Z,12.80
2018-06-24T05:52:14.678Z,12.90
2018-06-24T05:54:44.333Z,13.10
2018-06-24T06:02:09.546Z,13.40
2018-06-24T06:04:37.670Z,13.40
2018-06-24T06:07:05.733Z,13.30
2018-06-24T06:09:34.548Z,13.30
2018-06-24T06:12:03.346Z,13.30
2018-06-24T06:14:32.634Z,13.40
2018-06-24T06:17:00.845Z,13.50
2018-06-24T06:19:28.969Z,13.20
2018-06-24T06:21:57.070Z,13.30
2018-06-24T06:24:26.129Z,13.20
2018-06-24T06:26:54.866Z,13.20
2018-06-24T06:29:23.238Z,13.20
2018-06-24T06:31:51.415Z,13.00
2018-06-24T06:34:20.209Z,13.00
2018-06-24T06:36:50.595Z,12.90
2018-06-24T06:39:18.878Z,12.90
2018-06-24T06:41:46.953Z,12.90
2018-06-24T06:44:15.145Z,12.80
2018-06-24T06:46:43.294Z,12.70
2018-06-24T06:49:12.326Z,12.70
2018-06-24T06:51:40.970Z,12.60
2018-06-24T06:54:09.030Z,12.70
2018-06-24T06:56:37.458Z,12.80
2018-06-24T06:59:05.554Z,13.00
2018-06-24T07:01:34.346Z,13.10
2018-06-24T07:04:02.476Z,13.30
2018-06-24T07:06:31.391Z,13.50
2018-06-24T07:08:59.462Z,13.70
2018-06-24T07:11:27.558Z,13.80
2018-06-24T07:13:56.659Z,13.90
2018-06-24T07:16:24.757Z,13.90
2018-06-24T07:18:52.900Z,14.00
2018-06-24T07:23:49.301Z,14.20
2018-06-24T07:26:17.641Z,14.40
2018-06-24T07:31:14.228Z,14.60
2018-06-24T07:33:43.349Z,14.50
2018-06-24T07:36:12.190Z,14.50
2018-06-24T07:41:08.817Z,14.60
2018-06-24T07:43:36.889Z,14.60
2018-06-24T07:46:05.007Z,14.60
2018-06-24T07:48:33.870Z,14.50
2018-06-24T07:53:29.945Z,14.30
2018-06-24T07:55:58.774Z,14.20
2018-06-24T07:58:26.942Z,14.20
2018-06-24T08:00:55.110Z,14.00
2018-06-24T08:03:23.470Z,13.90
2018-06-24T08:05:52.210Z,13.90
2018-06-24T08:08:20.845Z,13.80
2018-06-24T08:10:49.318Z,13.70
2018-06-24T08:13:17.807Z,13.60
2018-06-24T08:15:46.019Z,13.50
2018-06-24T08:18:14.346Z,13.40
2018-06-24T08:20:42.545Z,13.40
2018-06-24T08:23:11.330Z,13.50
2018-06-24T08:25:39.569Z,13.40
2018-06-24T08:33:04.379Z,13.60
2018-06-24T08:35:33.031Z,14.00
2018-06-24T08:38:01.424Z,14.60
2018-06-24T08:40:29.514Z,15.10
2018-06-24T08:42:57.587Z,15.70
2018-06-24T08:45:26.735Z,16.00
2018-06-24T08:47:55.933Z,16.10
2018-06-24T08:50:24.205Z,16.10
2018-06-24T08:52:52.845Z,15.60
2018-06-24T08:55:21.484Z,15.50
2018-06-24T08:57:49.701Z,15.50
2018-06-24T09:02:46.518Z,15.70
2018-06-24T09:05:15.002Z,15.70
2018-06-24T09:07:43.839Z,15.50
2018-06-24T09:10:11.950Z,15.20
2018-06-24T09:12:40.413Z,15.40
2018-06-24T09:15:08.790Z,15.60
2018-06-24T09:20:05.402Z,15.50
2018-06-24T09:22:33.764Z,15.20
2018-06-24T09:25:02.806Z,14.90
2018-06-24T09:29:58.770Z,14.60
2018-06-24T09:32:27.169Z,14.60
2018-06-24T09:35:59.415Z,14.90
2018-06-24T09:38:28.134Z,15.50
2018-06-24T09:40:56.207Z,16.20
2018-06-24T09:43:24.913Z,16.60
2018-06-24T09:45:53.430Z,16.80
2018-06-24T09:48:22.018Z,17.00
2018-06-24T09:53:18.610Z,17.60
2018-06-24T09:55:47.881Z,18.30
2018-06-24T09:58:16.035Z,18.50
2018-06-24T10:00:44.694Z,19.30
2018-06-24T10:03:12.748Z,19.40
2018-06-24T10:05:41.194Z,19.70
2018-06-24T10:10:38.071Z,18.80
2018-06-24T10:13:06.446Z,18.30
2018-06-24T10:15:35.467Z,17.60
2018-06-24T10:18:05.153Z,17.10
2018-06-24T10:20:34.059Z,16.90
2018-06-24T10:23:02.470Z,16.90
2018-06-24T10:27:59.354Z,16.70
2018-06-24T10:30:28.106Z,16.60
2018-06-24T10:32:56.289Z,16.60
2018-06-24T10:35:25.390Z,17.30
2018-06-24T10:37:53.494Z,17.80
2018-06-24T10:40:21.542Z,17.80
2018-06-24T10:42:50.266Z,17.40
2018-06-24T10:45:18.385Z,17.00
2018-06-24T10:47:46.605Z,16.90
2018-06-24T10:52:43.978Z,16.50
2018-06-24T10:55:12.549Z,16.30
2018-06-24T11:00:09.237Z,15.90
2018-06-24T11:02:37.441Z,15.50
2018-06-24T11:05:05.898Z,15.30
2018-06-24T11:07:34.637Z,15.40
2018-06-24T11:10:03.163Z,15.60
2018-06-24T11:19:55.885Z,15.50
2018-06-24T11:22:23.969Z,15.90
2018-06-24T11:24:53.377Z,16.00
2018-06-24T11:27:21.629Z,16.20
2018-06-24T11:29:49.801Z,16.30
2018-06-24T11:32:17.961Z,16.20
2018-06-24T11:34:46.853Z,16.30
2018-06-24T11:37:15.126Z,16.20
2018-06-24T11:42:11.274Z,16.80
2018-06-24T11:44:39.529Z,17.50
2018-06-24T11:47:08.497Z,18.60
2018-06-24T11:49:37.151Z,18.80
2018-06-24T11:52:05.233Z,18.60
2018-06-24T11:54:33.832Z,18.30
2018-06-24T11:57:02.083Z,18.00
2018-06-24T12:01:59.059Z,17.30
2018-06-24T12:04:27.666Z,17.00
2018-06-24T12:06:55.817Z,16.90
2018-06-24T12:09:23.857Z,16.80
2018-06-24T12:16:48.563Z,16.50
2018-06-24T12:19:17.122Z,16.20
2018-06-24T12:21:45.809Z,15.80
2018-06-24T12:24:13.937Z,15.80
2018-06-24T12:26:42.195Z,15.70
2018-06-24T12:31:38.919Z,15.90
2018-06-24T12:34:07.764Z,15.80
2018-06-24T12:36:39.046Z,16.00
2018-06-24T12:39:09.124Z,16.20
2018-06-24T12:41:38.494Z,16.20
2018-06-24T12:44:09.275Z,16.20
2018-06-24T12:46:37.362Z,16.10
2018-06-24T12:49:07.588Z,16.20
2018-06-24T12:51:38.532Z,16.00
2018-06-24T12:54:07.693Z,15.80
2018-06-24T12:56:40.334Z,15.70
2018-06-24T12:59:08.847Z,15.50
2018-06-24T13:01:37.571Z,15.30
2018-06-24T13:04:06.026Z,15.30
2018-06-24T13:06:34.349Z,15.40
2018-06-24T13:09:02.450Z,15.50
2018-06-24T13:11:31.053Z,15.60
2018-06-24T13:13:59.473Z,15.70
2018-06-24T13:16:28.354Z,15.90
2018-06-24T13:18:56.433Z,16.10
2018-06-24T13:21:27.821Z,16.10
2018-06-24T13:23:55.965Z,16.30
2018-06-24T13:26:24.126Z,16.40
2018-06-24T13:28:52.195Z,16.40
2018-06-24T13:31:20.438Z,16.20
2018-06-24T13:36:17.393Z,15.70
2018-06-24T13:41:16.139Z,15.50
2018-06-24T13:43:44.385Z,15.50
2018-06-24T13:46:13.065Z,15.70
2018-06-24T13:51:10.171Z,16.30
2018-06-24T13:53:38.278Z,16.60
2018-06-24T13:56:07.281Z,16.60
2018-06-24T13:58:35.513Z,16.50
2018-06-24T14:01:03.550Z,16.30
2018-06-24T14:06:00.836Z,16.10
2018-06-24T14:08:29.743Z,16.00
2018-06-24T14:10:58.237Z,15.70
2018-06-24T14:13:27.515Z,15.60
2018-06-24T14:15:55.937Z,15.50
2018-06-24T14:18:24.089Z,15.70
2018-06-24T14:20:52.513Z,16.00
2018-06-24T14:23:20.752Z,16.50
2018-06-24T14:25:48.762Z,16.60
2018-06-24T14:28:17.233Z,16.60
2018-06-24T14:30:45.511Z,16.40
2018-06-24T14:33:14.104Z,16.20
2018-06-24T14:35:42.229Z,16.10
2018-06-24T14:38:10.287Z,16.10
2018-06-24T14:40:38.469Z,16.10
2018-06-24T14:43:06.758Z,16.10
2018-06-24T14:45:35.645Z,15.90
2018-06-24T14:48:04.253Z,15.80
2018-06-24T14:50:32.737Z,15.80
2018-06-24T14:53:01.685Z,15.80
2018-06-24T14:55:29.924Z,15.70
2018-06-24T14:57:58.610Z,15.70
2018-06-24T15:00:26.746Z,15.60
2018-06-24T15:02:55.572Z,15.70
2018-06-24T15:05:23.706Z,15.60
2018-06-24T15:07:51.759Z,15.70
2018-06-24T15:10:21.582Z,15.70
2018-06-24T15:12:49.799Z,15.70
2018-06-24T15:15:18.354Z,15.60
2018-06-24T15:17:46.723Z,15.70
2018-06-24T15:20:14.981Z,15.70
2018-06-24T15:22:43.202Z,15.60
2018-06-24T15:25:13.221Z,15.40
2018-06-24T15:27:41.586Z,15.30
2018-06-24T15:30:10.270Z,15.30
2018-06-24T15:32:39.118Z,15.50
2018-06-24T15:37:35.131Z,15.60
2018-06-24T15:40:04.061Z,15.70
2018-06-24T15:42:32.261Z,15.90
2018-06-24T15:45:00.446Z,15.90
2018-06-24T15:47:28.637Z,15.90
2018-06-24T15:49:57.371Z,16.00
2018-06-24T15:54:53.858Z,16.00
2018-06-24T15:57:22.785Z,16.00
2018-06-24T15:59:51.505Z,15.90
2018-06-24T16:02:20.217Z,16.00
2018-06-24T16:04:48.653Z,16.20
2018-06-24T16:09:44.818Z,15.70
2018-06-24T16:12:12.886Z,15.70
2018-06-24T16:17:09.284Z,15.70
2018-06-24T16:19:37.495Z,15.90
2018-06-24T16:22:06.979Z,16.10
2018-06-24T16:24:36.577Z,16.20
2018-06-24T16:27:04.709Z,16.20
2018-06-24T16:29:33.625Z,16.10
2018-06-24T16:32:02.655Z,16.20
2018-06-24T16:34:30.699Z,16.10
2018-06-24T16:36:58.769Z,15.90
2018-06-24T16:39:26.845Z,15.80
2018-06-24T16:41:55.030Z,15.80
2018-06-24T16:44:23.393Z,15.90
2018-06-24T16:46:51.567Z,15.90
2018-06-24T16:49:20.465Z,15.80
2018-06-24T16:51:48.673Z,15.70
2018-06-24T16:54:16.893Z,15.70
2018-06-24T16:56:46.023Z,15.90
2018-06-24T16:59:14.146Z,15.80
2018-06-24T17:01:42.558Z,15.60
2018-06-24T17:04:10.805Z,15.60
2018-06-24T17:06:38.984Z,15.60
2018-06-24T17:09:08.481Z,15.50
2018-06-24T17:11:37.089Z,15.60
2018-06-24T17:14:05.491Z,15.60
2018-06-24T17:16:34.041Z,15.50
2018-06-24T17:19:02.229Z,15.50
2018-06-24T17:21:30.522Z,15.60
2018-06-24T17:23:58.870Z,15.50
2018-06-24T17:26:27.855Z,15.60
2018-06-24T17:28:55.958Z,15.60
2018-06-24T17:31:24.246Z,15.70
2018-06-24T17:33:55.031Z,15.60
2018-06-24T17:36:23.158Z,15.60
2018-06-24T17:38:51.253Z,15.60
2018-06-24T17:41:19.848Z,15.50
2018-06-24T17:43:47.943Z,15.40
2018-06-24T17:46:16.895Z,15.30
2018-06-24T17:48:45.019Z,15.40
2018-06-24T17:51:13.545Z,15.30
2018-06-24T17:53:41.665Z,15.40
2018-06-24T17:56:09.738Z,15.40
2018-06-24T17:58:37.850Z,15.30
2018-06-24T18:01:06.446Z,15.30
2018-06-24T18:03:34.866Z,15.20
2018-06-24T18:08:31.275Z,15.10
2018-06-24T18:10:59.765Z,15.10
2018-06-24T18:13:27.924Z,15.00
2018-06-24T18:15:57.032Z,15.00
2018-06-24T18:18:26.218Z,15.00
2018-06-24T18:20:54.357Z,15.00
2018-06-24T18:23:22.985Z,15.00
2018-06-24T18:28:19.209Z,14.90
2018-06-24T18:30:47.951Z,14.90
2018-06-24T18:33:16.920Z,14.90
2018-06-24T18:35:45.098Z,14.90
2018-06-24T18:38:13.598Z,14.80
2018-06-24T18:40:41.730Z,14.70
2018-06-24T18:43:09.823Z,14.70
2018-06-24T18:45:38.050Z,14.70
2018-06-24T18:48:06.890Z,14.90
2018-06-24T18:50:35.034Z,14.70
2018-06-24T18:53:04.046Z,14.60
2018-06-24T18:55:32.254Z,14.60
2018-06-24T18:58:00.473Z,14.50
2018-06-24T19:00:28.984Z,14.40
2018-06-24T19:02:57.300Z,14.40
2018-06-24T19:05:25.250Z,14.30
2018-06-24T19:07:54.363Z,14.20
2018-06-24T19:10:23.522Z,14.20
2018-06-24T19:12:51.699Z,14.10
2018-06-24T19:15:20.846Z,14.10
2018-06-24T19:17:49.117Z,14.10
2018-06-24T19:20:17.698Z,14.10
2018-06-24T19:25:15.870Z,14.00
2018-06-24T19:27:44.135Z,14.00
2018-06-24T19:30:12.998Z,14.00
2018-06-24T19:32:41.895Z,14.00
2018-06-24T19:35:10.301Z,14.00
2018-06-24T19:37:39.105Z,13.90
2018-06-24T19:40:07.515Z,13.90
2018-06-24T19:42:36.087Z,13.90
2018-06-24T19:45:04.925Z,13.90
2018-06-24T19:47:33.650Z,13.80
2018-06-24T19:52:29.670Z,13.80
2018-06-24T19:54:58.316Z,13.70
2018-06-24T19:57:26.504Z,13.60
2018-06-24T19:59:55.510Z,13.60
2018-06-24T20:02:24.566Z,13.50
2018-06-24T20:04:53.387Z,13.50
2018-06-24T20:07:22.773Z,13.50
2018-06-24T20:09:50.898Z,13.50
2018-06-24T20:12:19.026Z,13.40
2018-06-24T20:14:47.688Z,13.40
2018-06-24T20:17:16.187Z,13.30
2018-06-24T20:19:44.718Z,13.30
2018-06-24T20:22:12.865Z,13.20
2018-06-24T20:24:41.035Z,13.10
2018-06-24T20:27:10.474Z,13.00
2018-06-24T20:29:39.829Z,12.90
2018-06-24T20:32:08.218Z,12.80
2018-06-24T20:34:37.209Z,12.80
2018-06-24T20:37:05.662Z,12.70
2018-06-24T20:39:33.899Z,12.60
2018-06-24T20:42:02.070Z,12.60
2018-06-24T20:44:30.205Z,12.50
2018-06-24T20:46:58.402Z,12.50
2018-06-24T20:49:26.801Z,12.40
2018-06-24T20:51:54.934Z,12.40
2018-06-24T20:54:23.338Z,12.40
2018-06-24T20:56:51.909Z,12.30
2018-06-24T20:59:20.066Z,12.30
2018-06-24T21:01:48.251Z,12.30
2018-06-24T21:04:16.519Z,12.20
2018-06-24T21:06:45.562Z,12.10
2018-06-24T21:09:13.975Z,12.10
2018-06-24T21:11:43.014Z,12.00
2018-06-24T21:14:11.513Z,11.90
2018-06-24T21:16:40.298Z,11.80
2018-06-24T21:19:08.447Z,11.70
2018-06-24T21:21:36.676Z,11.70
2018-06-24T21:29:01.438Z,11.60
2018-06-24T21:31:29.849Z,11.80
2018-06-24T21:33:58.906Z,11.80
2018-06-24T21:36:27.981Z,11.80
2018-06-24T21:38:57.406Z,11.70
2018-06-24T21:41:26.577Z,11.70
2018-06-24T21:46:22.890Z,11.80
2018-06-24T21:48:51.771Z,11.80
2018-06-24T21:51:19.920Z,11.80
2018-06-24T21:53:48.105Z,11.80
2018-06-24T21:56:16.438Z,11.90
2018-06-24T22:01:12.893Z,12.00
2018-06-24T22:06:09.662Z,12.00
2018-06-24T22:08:37.870Z,12.00
2018-06-24T22:11:06.630Z,12.10
2018-06-24T22:13:35.166Z,12.10
2018-06-24T22:16:03.266Z,12.10
2018-06-24T22:23:28.059Z,12.20
2018-06-24T22:25:56.247Z,12.20
2018-06-24T22:28:24.637Z,12.20
2018-06-24T22:30:53.447Z,12.10
2018-06-24T22:35:49.941Z,12.00
2018-06-24T22:38:18.806Z,11.90
2018-06-24T22:40:46.867Z,11.80
2018-06-24T22:43:16.058Z,11.80
2018-06-24T22:45:44.571Z,11.80
2018-06-24T22:48:12.803Z,11.80
2018-06-24T22:53:09.759Z,11.80
2018-06-24T22:55:37.899Z,11.90
2018-06-24T22:58:06.511Z,11.90
2018-06-24T23:00:35.487Z,12.00
2018-06-24T23:03:04.771Z,12.00
2018-06-24T23:05:33.407Z,12.10
2018-06-24T23:10:29.779Z,12.20
2018-06-24T23:12:58.209Z,12.20
2018-06-24T23:15:27.622Z,12.20
2018-06-24T23:17:55.765Z,12.20
2018-06-24T23:20:24.571Z,12.30
2018-06-24T23:22:52.699Z,12.30
2018-06-24T23:25:21.611Z,12.40
2018-06-24T23:27:49.767Z,12.30
2018-06-24T23:30:17.838Z,12.30
2018-06-24T23:32:47.254Z,12.30
2018-06-24T23:35:15.459Z,12.40
2018-06-24T23:37:43.611Z,12.40
2018-06-24T23:40:12.622Z,12.40
2018-06-24T23:42:41.385Z,12.40
2018-06-24T23:45:09.622Z,12.40
2018-06-24T23:50:05.693Z,12.50
2018-06-24T23:52:33.938Z,12.50
2018-06-24T23:58:59.770Z,12.50
